M I D A S
Marine Information and Data Acquisition System
Tripno 2031 of the Zeeleeuw from 2011-01-14 07:38:52 to 2011-01-14 15:06:52
Back to CruiseResearch ActivitiesStationsMapUnderway DataData graphs

EquipmentUnitsComment
TimeDGPSUTC
LatitudeDGPSDM.mWGS84
LongitudeDGPSDM.mWGS84
HeadingGyrodeg 
SOGDGPSknotsSpeed over ground
COGDGPSdegCourse over ground
DepthEcho soundermeters200 kHz
Missing or incorrect values are displayed as -999
Navigation data collected by the RV Zeeleeuw from 2011-01-14 07:43:22 to 2011-01-14 15:16:46
                                                                                    Next 1000 lines
Time Latitude Longitude Heading SOG COG Depth
2011-01-14 07:43:32 51°13.661 2°55.956 107.9 1.1 292 9.4
2011-01-14 07:43:37 51°13.662 2°55.953 107.9 1.5 293 9.4
2011-01-14 07:43:42 51°13.663 2°55.949 107.9 2.1 293 9.3
2011-01-14 07:43:47 51°13.665 2°55.944 108.1 2.4 293 5.4
2011-01-14 07:43:53 51°13.667 2°55.937 108 2.9 294 -999
2011-01-14 07:43:58 51°13.669 2°55.93 107.9 3.4 294 -999
2011-01-14 07:44:04 51°13.671 2°55.921 107.9 3.8 293 -999
2011-01-14 07:44:09 51°13.674 2°55.913 107.8 4.1 292 -999
2011-01-14 07:44:16 51°13.677 2°55.9 107.4 4.3 291 -999
2011-01-14 07:44:21 51°13.679 2°55.891 106.6 4.5 291 -999
2011-01-14 07:44:26 51°13.681 2°55.881 105.9 4.5 289 -999
2011-01-14 07:44:31 51°13.683 2°55.872 104.8 4.5 289 -999
2011-01-14 07:44:36 51°13.685 2°55.863 103.5 4.3 288 -999
2011-01-14 07:44:41 51°13.686 2°55.854 102.3 4.2 287 -999
2011-01-14 07:44:46 51°13.688 2°55.846 101.2 4.1 286 -999
2011-01-14 07:44:51 51°13.689 2°55.837 100.2 4 286 -999
2011-01-14 07:44:56 51°13.691 2°55.829 99.2 3.8 285 -999
2011-01-14 07:45:01 51°13.692 2°55.822 98.1 3.7 285 -999
2011-01-14 07:45:05 51°13.693 2°55.816 96.8 3.5 284 -999
2011-01-14 07:45:11 51°13.695 2°55.807 95.4 3.4 284 5.2
2011-01-14 07:45:16 51°13.695 2°55.8 94.2 3.3 282 -999
2011-01-14 07:45:21 51°13.696 2°55.793 92.4 3.2 282 13.5
2011-01-14 07:45:25 51°13.697 2°55.788 90.8 3 282 14.2
2011-01-14 07:45:30 51°13.698 2°55.782 89.4 2.6 282 14.7
2011-01-14 07:45:35 51°13.698 2°55.778 88 2 282 14.9
2011-01-14 07:45:40 51°13.699 2°55.775 86.3 1.5 288 15
2011-01-14 07:45:45 51°13.699 2°55.773 82.3 1 291 15
2011-01-14 07:45:50 51°13.7 2°55.771 77.5 0.9 299 15
2011-01-14 07:45:55 51°13.701 2°55.77 72.1 0.8 306 14.9
2011-01-14 07:46:00 51°13.701 2°55.769 67.7 0.7 316 14.9
2011-01-14 07:46:05 51°13.702 2°55.768 63.9 0.6 327 14.9
2011-01-14 07:46:09 51°13.702 2°55.767 59.9 0.6 327 14.9
2011-01-14 07:46:14 51°13.703 2°55.766 56.3 0.6 323 14.9
2011-01-14 07:46:19 51°13.703 2°55.765 53.6 0.6 300 14.9
2011-01-14 07:46:24 51°13.704 2°55.763 51.3 0.8 281 14.9
2011-01-14 07:46:29 51°13.703 2°55.761 48.9 0.9 262 14.9
2011-01-14 07:46:33 51°13.703 2°55.759 46.9 1.2 255 14.9
2011-01-14 07:46:38 51°13.702 2°55.756 44.9 1.4 246 14.9
2011-01-14 07:46:43 51°13.701 2°55.753 42.9 1.4 245 14.9
2011-01-14 07:46:48 51°13.7 2°55.75 40.9 1.4 241 14.9
2011-01-14 07:46:53 51°13.699 2°55.748 39 1.4 242 5.1
2011-01-14 07:46:59 51°13.698 2°55.745 37.6 1.2 244 -999
2011-01-14 07:47:05 51°13.699 2°55.744 35.6 0.4 276 -999
2011-01-14 07:47:10 51°13.699 2°55.743 31.9 0.6 316 -999
2011-01-14 07:47:16 51°13.7 2°55.743 26.5 0.6 347 -999
2011-01-14 07:47:21 51°13.702 2°55.742 20.9 1 346 -999
2011-01-14 07:47:26 51°13.703 2°55.742 16.1 1.2 1 -999
2011-01-14 07:47:30 51°13.705 2°55.742 10.2 1.4 349 14.6
2011-01-14 07:47:35 51°13.707 2°55.742 5.7 1.5 355 14.8
2011-01-14 07:47:40 51°13.709 2°55.741 1.5 1.7 347 14.8
2011-01-14 07:47:45 51°13.712 2°55.74 357.2 1.8 347 14.8
2011-01-14 07:47:50 51°13.715 2°55.738 352.2 2 342 14.8
2011-01-14 07:47:55 51°13.718 2°55.737 347.4 2.2 341 14.8
2011-01-14 07:48:00 51°13.721 2°55.734 343.4 2.6 337 14.8
2011-01-14 07:48:05 51°13.725 2°55.732 340 2.9 337 14.7
2011-01-14 07:48:09 51°13.728 2°55.729 337.5 3.2 335 15
2011-01-14 07:48:14 51°13.733 2°55.725 335.3 3.7 333 14.7
2011-01-14 07:48:19 51°13.738 2°55.721 333.4 4.1 332 14.2
2011-01-14 07:48:24 51°13.743 2°55.716 331.8 4.5 331 14
2011-01-14 07:48:29 51°13.749 2°55.711 330.7 4.7 331 13.4
2011-01-14 07:48:33 51°13.754 2°55.707 329.6 3.3 329 13.1
2011-01-14 07:48:38 51°13.759 2°55.7 329 3.4 329 12.8
2011-01-14 07:48:43 51°13.767 2°55.693 328.4 5.2 328 12.5
2011-01-14 07:48:48 51°13.774 2°55.686 327.7 6.2 328 12.5
2011-01-14 07:48:52 51°13.78 2°55.679 326.9 5.3 327 12.6
2011-01-14 07:48:58 51°13.789 2°55.667 326.7 6.6 327 12.4
2011-01-14 07:49:03 51°13.797 2°55.659 326.7 7.1 328 12.4
2011-01-14 07:49:08 51°13.806 2°55.652 326.9 7.3 329 12.4
2011-01-14 07:49:13 51°13.815 2°55.644 327.4 7.6 329 12.3
2011-01-14 07:49:17 51°13.823 2°55.637 328.2 7.8 330 12.3
2011-01-14 07:49:23 51°13.835 2°55.628 329.9 8.1 332 12.2
2011-01-14 07:49:28 51°13.845 2°55.619 331.1 8.3 332 12.5
2011-01-14 07:49:33 51°13.856 2°55.611 332.1 8.5 333 12.1
2011-01-14 07:49:37 51°13.864 2°55.605 332.5 8.6 333 12
2011-01-14 07:49:42 51°13.875 2°55.596 333.3 8.9 334 -999
2011-01-14 07:49:48 51°13.89 2°55.586 334.9 9.2 336 -999
2011-01-14 07:49:53 51°13.902 2°55.578 335.5 9.4 336 -999
2011-01-14 07:49:59 51°13.916 2°55.568 336.2 9.5 338 -999
2011-01-14 07:50:05 51°13.931 2°55.558 337.6 9.6 339 -999
2011-01-14 07:50:11 51°13.946 2°55.55 339 9.7 339 -999
2011-01-14 07:50:16 51°13.959 2°55.542 339.5 5.3 339 -999
2011-01-14 07:50:21 51°13.971 2°55.533 339 9.4 339 -999
2011-01-14 07:50:25 51°13.982 2°55.524 338.9 10 339 -999
2011-01-14 07:50:30 51°13.995 2°55.515 338.5 9.9 337 -999
2011-01-14 07:50:36 51°14.01 2°55.505 337.3 9.9 336 -999
2011-01-14 07:50:41 51°14.023 2°55.497 336.2 10 336 -999
2011-01-14 07:50:45 51°14.033 2°55.49 336.1 10 337 12.4
2011-01-14 07:50:50 51°14.046 2°55.481 336.1 10.1 336 -999
2011-01-14 07:50:55 51°14.059 2°55.473 335.8 10.2 336 -999
2011-01-14 07:51:00 51°14.071 2°55.464 335.6 10.2 336 -999
2011-01-14 07:51:05 51°14.085 2°55.455 335.6 10.3 336 12.4
2011-01-14 07:51:10 51°14.097 2°55.445 335.6 10.4 335 -999
2011-01-14 07:51:15 51°14.111 2°55.435 335.4 10.5 335 -999
2011-01-14 07:51:20 51°14.124 2°55.425 334.7 10.6 334 -999
2011-01-14 07:51:25 51°14.137 2°55.415 334.6 10.6 335 -999
2011-01-14 07:51:30 51°14.151 2°55.405 335.4 10.7 335 -999
2011-01-14 07:51:35 51°14.164 2°55.395 334.7 10.7 333 -999
2011-01-14 07:51:41 51°14.18 2°55.381 333.2 10.7 333 -999
2011-01-14 07:51:46 51°14.193 2°55.369 331.8 10.8 330 -999
2011-01-14 07:51:51 51°14.206 2°55.357 330.4 10.8 329 -999
2011-01-14 07:51:56 51°14.218 2°55.344 328.3 10.8 327 -999
2011-01-14 07:52:00 51°14.229 2°55.334 327.4 10.8 327 -999
2011-01-14 07:52:05 51°14.241 2°55.32 326.7 10.9 326 -999
2011-01-14 07:52:10 51°14.253 2°55.307 325.7 10.9 325 -999
2011-01-14 07:52:16 51°14.268 2°55.29 324.7 10.9 324 -999
2011-01-14 07:52:21 51°14.281 2°55.276 323.7 10.9 325 -999
2011-01-14 07:52:25 51°14.291 2°55.266 323.8 11 325 12
2011-01-14 07:52:30 51°14.303 2°55.251 324.3 11 325 12.1
2011-01-14 07:52:36 51°14.318 2°55.235 324.5 10.9 325 -999
2011-01-14 07:52:40 51°14.328 2°55.224 324.5 11 325 12.1
2011-01-14 07:52:46 51°14.344 2°55.207 324.6 11.2 326 -999
2011-01-14 07:52:50 51°14.354 2°55.196 324.8 11.2 326 12.7
2011-01-14 07:52:55 51°14.367 2°55.184 325.4 11.1 330 11.8
2011-01-14 07:53:00 51°14.381 2°55.172 327.6 11.3 331 12.2
2011-01-14 07:53:05 51°14.395 2°55.16 330 11.4 333 12.5
2011-01-14 07:53:10 51°14.409 2°55.148 331.5 11.3 334 12.3
2011-01-14 07:53:15 51°14.423 2°55.137 333.2 11.4 335 12.9
2011-01-14 07:53:21 51°14.44 2°55.124 334 11.4 333 -999
2011-01-14 07:53:26 51°14.454 2°55.112 333.1 11.5 332 12.5
2011-01-14 07:53:31 51°14.468 2°55.1 331.8 11.4 332 12.2
2011-01-14 07:53:35 51°14.48 2°55.09 331.6 11.6 332 12.8
2011-01-14 07:53:40 51°14.495 2°55.079 331 11.8 333 13
2011-01-14 07:53:45 51°14.509 2°55.067 331 11.9 332 12.9
2011-01-14 07:53:50 51°14.525 2°55.056 331.4 12.1 336 13
2011-01-14 07:53:55 51°14.54 2°55.045 332.5 12.1 336 13.2
2011-01-14 07:53:59 51°14.553 2°55.037 333.1 12.2 338 13.1
2011-01-14 07:54:04 51°14.569 2°55.027 333.5 12.4 340 13.3
2011-01-14 07:54:09 51°14.586 2°55.019 336.7 12.7 343 13.5
2011-01-14 07:54:14 51°14.603 2°55.011 337.7 12.8 343 13.2
2011-01-14 07:54:19 51°14.62 2°55.003 337.9 12.9 344 13.2
2011-01-14 07:54:24 51°14.637 2°54.994 337.5 13 342 13.1
2011-01-14 07:54:28 51°14.651 2°54.987 336.6 13 343 13.5
2011-01-14 07:54:34 51°14.671 2°54.976 334.8 12.9 341 12.5
2011-01-14 07:54:39 51°14.689 2°54.968 335.6 13.1 344 12.7
2011-01-14 07:54:43 51°14.702 2°54.961 335.4 13 342 12
2011-01-14 07:54:48 51°14.721 2°54.955 336.9 13.2 348 12.4
2011-01-14 07:54:53 51°14.738 2°54.948 338.6 13.2 346 12.2
2011-01-14 07:54:58 51°14.756 2°54.941 339 13.3 347 12
2011-01-14 07:55:03 51°14.774 2°54.935 339.8 13.4 348 12.2
2011-01-14 07:55:07 51°14.789 2°54.931 340.5 13.5 350 12.2
2011-01-14 07:55:12 51°14.807 2°54.925 341.3 13.6 349 12.4
2011-01-14 07:55:17 51°14.826 2°54.92 341.7 13.6 351 11.9
2011-01-14 07:55:22 51°14.845 2°54.915 342.3 13.7 350 12.2
2011-01-14 07:55:27 51°14.863 2°54.909 342.5 13.6 350 11.8
2011-01-14 07:55:32 51°14.882 2°54.905 342.7 13.7 351 11.6
2011-01-14 07:55:37 51°14.901 2°54.9 342.8 13.6 350 11.9
2011-01-14 07:55:42 51°14.92 2°54.894 343.2 13.7 349 11.9
2011-01-14 07:55:47 51°14.938 2°54.889 342.7 13.8 351 11
2011-01-14 07:55:52 51°14.957 2°54.882 342.4 13.6 348 11.3
2011-01-14 07:55:57 51°14.975 2°54.875 340.9 13.7 346 10.8
2011-01-14 07:56:02 51°14.993 2°54.867 338.2 13.5 344 11.2
2011-01-14 07:56:07 51°15.011 2°54.858 336.7 13.4 343 11.1
2011-01-14 07:56:12 51°15.029 2°54.849 335.4 13.6 342 11.2
2011-01-14 07:56:17 51°15.046 2°54.839 334.2 13.4 341 10.6
2011-01-14 07:56:22 51°15.063 2°54.829 333.2 13.3 340 10.4
2011-01-14 07:56:27 51°15.081 2°54.819 332.4 13.2 340 11.2
2011-01-14 07:56:32 51°15.098 2°54.809 331.5 13.3 340 11
2011-01-14 07:56:37 51°15.115 2°54.798 331.6 13.3 338 10.7
2011-01-14 07:56:42 51°15.133 2°54.787 330.3 13.4 339 10.6
2011-01-14 07:56:47 51°15.149 2°54.776 329.6 13.1 335 10.3
2011-01-14 07:56:52 51°15.165 2°54.764 329.5 13.1 337 10.9
2011-01-14 07:56:57 51°15.181 2°54.75 328.9 13 332 10.6
2011-01-14 07:57:02 51°15.198 2°54.738 327.9 13 335 10
2011-01-14 07:57:07 51°15.213 2°54.723 326 13 329 10.1
2011-01-14 07:57:11 51°15.225 2°54.713 325.1 12.9 330 10.4
2011-01-14 07:57:17 51°15.243 2°54.694 322.5 12.7 327 10.7
2011-01-14 07:57:22 51°15.258 2°54.678 320.6 12.7 327 10.8
2011-01-14 07:57:27 51°15.273 2°54.663 320.3 12.8 326 11.1
2011-01-14 07:57:32 51°15.287 2°54.645 319 12.7 323 10.7
2011-01-14 07:57:37 51°15.3 2°54.629 316.8 12.8 323 11.6
2011-01-14 07:57:42 51°15.314 2°54.611 316.1 12.7 321 11.2
2011-01-14 07:57:47 51°15.328 2°54.593 315 12.6 321 11
2011-01-14 07:57:51 51°15.339 2°54.579 315.8 12.7 321 11.6
2011-01-14 07:57:57 51°15.355 2°54.558 315.9 12.5 321 10.9
2011-01-14 07:58:02 51°15.368 2°54.54 315.5 12.5 320 11.1
2011-01-14 07:58:07 51°15.382 2°54.524 315.2 12.6 322 11.8
2011-01-14 07:58:12 51°15.396 2°54.506 315.5 12.5 322 11.6
2011-01-14 07:58:17 51°15.409 2°54.489 316 12.7 321 11.3
2011-01-14 07:58:22 51°15.423 2°54.471 315.9 12.7 321 11.3
2011-01-14 07:58:27 51°15.437 2°54.453 315.5 12.7 321 11.5
2011-01-14 07:58:32 51°15.451 2°54.436 315.8 12.8 321 11.6
2011-01-14 07:58:37 51°15.464 2°54.417 315.8 12.8 320 11.9
2011-01-14 07:58:42 51°15.478 2°54.4 315.4 12.7 321 11.5
2011-01-14 07:58:47 51°15.491 2°54.382 315.5 12.7 319 11.9
2011-01-14 07:58:52 51°15.505 2°54.364 315.5 12.8 320 11.6
2011-01-14 07:58:57 51°15.519 2°54.347 315.3 12.7 322 12.3
2011-01-14 07:59:02 51°15.532 2°54.328 315.4 12.7 319 12.7
2011-01-14 07:59:07 51°15.546 2°54.311 316.2 12.7 321 12
2011-01-14 07:59:12 51°15.559 2°54.292 315.1 12.7 317 11.9
2011-01-14 07:59:17 51°15.572 2°54.274 313.6 12.5 320 12
2011-01-14 07:59:22 51°15.585 2°54.256 314.2 12.5 319 12.5
2011-01-14 07:59:27 51°15.598 2°54.237 313.6 12.6 319 12.1
2011-01-14 07:59:32 51°15.612 2°54.219 314.5 12.6 320 12.5
2011-01-14 07:59:37 51°15.625 2°54.201 314.7 12.6 320 12.3
2011-01-14 07:59:42 51°15.638 2°54.183 314.1 12.7 318 12.7
2011-01-14 07:59:47 51°15.652 2°54.165 314 12.7 320 12.4
2011-01-14 07:59:52 51°15.665 2°54.146 314 12.7 320 12.9
2011-01-14 07:59:57 51°15.679 2°54.128 314.1 12.8 320 12.5
2011-01-14 08:00:02 51°15.693 2°54.111 314.3 12.9 321 12.9
2011-01-14 08:00:07 51°15.706 2°54.093 314 12.8 322 12.3
2011-01-14 08:00:12 51°15.72 2°54.076 315.7 12.5 321 11.9
2011-01-14 08:00:17 51°15.732 2°54.058 315 12.5 319 12.6
2011-01-14 08:00:23 51°15.749 2°54.036 313.8 12.5 320 12.5
2011-01-14 08:00:27 51°15.759 2°54.022 314.3 12.6 319 12.7
2011-01-14 08:00:32 51°15.773 2°54.004 314.2 12.6 320 13
2011-01-14 08:00:37 51°15.786 2°53.985 314.5 12.8 319 12.7
2011-01-14 08:00:42 51°15.799 2°53.967 314.8 12.4 320 12.8
2011-01-14 08:00:47 51°15.812 2°53.949 314.8 12.6 319 13
2011-01-14 08:00:51 51°15.822 2°53.934 314.4 12.4 319 12.8
2011-01-14 08:00:57 51°15.838 2°53.913 315.3 12.5 320 13.1
2011-01-14 08:01:02 51°15.851 2°53.895 313.9 12.5 318 12.8
2011-01-14 08:01:07 51°15.865 2°53.877 313.2 12.6 320 13.4
2011-01-14 08:01:12 51°15.878 2°53.859 314.3 12.4 320 13.6
2011-01-14 08:01:17 51°15.891 2°53.841 312.7 12.3 318 14.1
2011-01-14 08:01:22 51°15.905 2°53.823 314.4 12.6 322 13.7
2011-01-14 08:01:27 51°15.918 2°53.805 314 12.6 319 13.1
2011-01-14 08:01:32 51°15.932 2°53.788 314.5 12.7 322 13.4
2011-01-14 08:01:37 51°15.945 2°53.77 315.4 12.7 321 12.8
2011-01-14 08:01:42 51°15.959 2°53.754 315.7 12.7 323 13.4
2011-01-14 08:01:47 51°15.973 2°53.736 316.5 12.8 323 13
2011-01-14 08:01:52 51°15.987 2°53.72 316.7 12.7 323 13.4
2011-01-14 08:01:57 51°16.002 2°53.704 318 12.7 325 13.6
2011-01-14 08:02:02 51°16.015 2°53.686 316.7 12.7 322 13.6
2011-01-14 08:02:07 51°16.03 2°53.669 316.5 12.7 324 13.4
2011-01-14 08:02:12 51°16.044 2°53.652 317.3 12.7 324 13.4
2011-01-14 08:02:17 51°16.058 2°53.636 317.2 12.7 324 13.2
2011-01-14 08:02:22 51°16.072 2°53.619 318 12.7 324 13.3
2011-01-14 08:02:27 51°16.086 2°53.602 317.9 12.8 323 13.7
2011-01-14 08:02:32 51°16.101 2°53.586 317.6 12.8 324 13.3
2011-01-14 08:02:37 51°16.114 2°53.568 317.1 12.7 323 13.7
2011-01-14 08:02:42 51°16.128 2°53.551 315.9 12.6 322 13.5
2011-01-14 08:02:47 51°16.143 2°53.534 316.9 12.6 324 14
2011-01-14 08:02:52 51°16.156 2°53.517 316.7 12.6 323 13.4
2011-01-14 08:02:57 51°16.171 2°53.502 317.4 12.6 325 14.2
2011-01-14 08:03:02 51°16.185 2°53.485 317.3 12.6 323 14.8
2011-01-14 08:03:07 51°16.199 2°53.469 317.3 12.5 326 13.8
2011-01-14 08:03:12 51°16.213 2°53.452 317.5 12.7 322 13.9
2011-01-14 08:03:17 51°16.227 2°53.435 315.6 12.7 324 14.2
2011-01-14 08:03:22 51°16.241 2°53.42 317.9 12.7 326 13.9
2011-01-14 08:03:27 51°16.255 2°53.403 317.4 12.6 323 13.2
2011-01-14 08:03:32 51°16.269 2°53.387 315.8 12.5 323 14.3
2011-01-14 08:03:37 51°16.283 2°53.37 317.4 12.7 324 14.4
2011-01-14 08:03:42 51°16.297 2°53.353 316.4 12.5 322 13.4
2011-01-14 08:03:47 51°16.311 2°53.337 316.5 12.7 324 13.1
2011-01-14 08:03:52 51°16.325 2°53.321 317.5 12.5 325 13.8
2011-01-14 08:03:57 51°16.339 2°53.304 318 12.7 323 13.5
2011-01-14 08:04:02 51°16.353 2°53.288 316.9 12.3 324 14.4
2011-01-14 08:04:07 51°16.367 2°53.272 318.5 12.4 326 14.3
2011-01-14 08:04:12 51°16.381 2°53.255 317.3 12.6 322 14.5
2011-01-14 08:04:17 51°16.395 2°53.239 316.3 12.7 325 14.3
2011-01-14 08:04:22 51°16.41 2°53.223 318.7 12.7 327 14.1
2011-01-14 08:04:27 51°16.424 2°53.207 319.4 12.7 324 14.4
2011-01-14 08:04:32 51°16.44 2°53.192 320.8 12.9 329 13.9
2011-01-14 08:04:37 51°16.455 2°53.176 321.3 12.7 327 13.9
2011-01-14 08:04:42 51°16.47 2°53.161 321.7 12.7 328 14.1
2011-01-14 08:04:47 51°16.485 2°53.147 323.8 12.9 331 13.9
2011-01-14 08:04:52 51°16.5 2°53.131 321.8 12.9 326 13.5
2011-01-14 08:04:57 51°16.516 2°53.117 321.6 13 330 13.8
2011-01-14 08:05:02 51°16.531 2°53.102 322.1 13 327 14.1
2011-01-14 08:05:07 51°16.547 2°53.087 322.3 12.9 330 14.3
2011-01-14 08:05:12 51°16.561 2°53.072 322 12.9 327 14.1
2011-01-14 08:05:17 51°16.577 2°53.058 322.6 13.1 332 14
2011-01-14 08:05:22 51°16.592 2°53.042 322.3 13 326 13.8
2011-01-14 08:05:27 51°16.607 2°53.028 321.6 13 329 12.7
2011-01-14 08:05:32 51°16.622 2°53.015 323 12.5 330 13.6
2011-01-14 08:05:37 51°16.637 2°53 323.7 12.6 328 13.5
2011-01-14 08:05:42 51°16.652 2°52.986 323.3 12.6 329 13.3
2011-01-14 08:05:47 51°16.668 2°52.972 324.1 12.5 330 14.2
2011-01-14 08:05:51 51°16.68 2°52.96 323 12.7 329 13.3
2011-01-14 08:05:57 51°16.699 2°52.944 324.5 12.8 332 13.3
2011-01-14 08:06:02 51°16.713 2°52.928 323.8 12.8 327 13.4
2011-01-14 08:06:07 51°16.729 2°52.914 323.8 12.9 331 12.5
2011-01-14 08:06:12 51°16.744 2°52.9 324.8 12.7 329 12.2
2011-01-14 08:06:17 51°16.759 2°52.886 324.3 12.7 329 12.3
2011-01-14 08:06:22 51°16.774 2°52.871 323.7 12.7 329 12.5
2011-01-14 08:06:27 51°16.79 2°52.857 324.6 12.8 331 11.7
2011-01-14 08:06:32 51°16.804 2°52.841 322.8 12.7 327 11.7
2011-01-14 08:06:37 51°16.821 2°52.829 324.3 12.9 333 12
2011-01-14 08:06:42 51°16.835 2°52.812 324.2 12.9 327 11.5
2011-01-14 08:06:47 51°16.851 2°52.799 324.1 13 332 10.9
2011-01-14 08:06:52 51°16.866 2°52.784 324.1 12.7 328 11.9
2011-01-14 08:06:57 51°16.881 2°52.77 324.5 12.8 330 11.6
2011-01-14 08:07:02 51°16.897 2°52.755 324.4 13 329 11.7
2011-01-14 08:07:07 51°16.912 2°52.741 323.1 12.9 329 11.6
2011-01-14 08:07:11 51°16.925 2°52.73 323.7 13 331 11.3
2011-01-14 08:07:17 51°16.944 2°52.713 324.9 13.1 330 11.6
2011-01-14 08:07:22 51°16.96 2°52.7 326.6 13.2 335 11.7
2011-01-14 08:07:27 51°16.976 2°52.686 327.3 13.2 331 11.5
2011-01-14 08:07:32 51°16.992 2°52.674 326.7 13.1 335 12
2011-01-14 08:07:37 51°17.01 2°52.664 330.8 13.1 339 12.4
2011-01-14 08:07:42 51°17.027 2°52.655 334.9 13.4 342 12.4
2011-01-14 08:07:47 51°17.044 2°52.645 336.5 13.2 341 11.5
2011-01-14 08:07:51 51°17.059 2°52.642 340.6 13.3 349 11.6
2011-01-14 08:07:57 51°17.08 2°52.63 340.9 13.2 341 11.5
2011-01-14 08:08:02 51°17.099 2°52.627 341.8 13.5 352 12.1
2011-01-14 08:08:07 51°17.116 2°52.618 342.5 13.4 344 11.3
2011-01-14 08:08:12 51°17.135 2°52.615 346.3 13.5 352 11.6
2011-01-14 08:08:17 51°17.152 2°52.607 343.4 13.1 348 11.9
2011-01-14 08:08:22 51°17.17 2°52.604 345.1 13.3 353 12.5
2011-01-14 08:08:27 51°17.188 2°52.598 347 13.2 350 12.1
2011-01-14 08:08:31 51°17.203 2°52.598 351.9 13.3 355 12.3
2011-01-14 08:08:37 51°17.226 2°52.591 349.2 13.4 350 11.6
2011-01-14 08:08:42 51°17.244 2°52.588 348.5 13.5 352 11.9
2011-01-14 08:08:47 51°17.262 2°52.586 350.2 13.3 356 12.1
2011-01-14 08:08:52 51°17.281 2°52.583 352.8 13.6 354 12.1
2011-01-14 08:08:57 51°17.3 2°52.579 348.8 13.3 354 12.3
2011-01-14 08:09:02 51°17.318 2°52.579 351.4 13.5 359 12.6
2011-01-14 08:09:07 51°17.337 2°52.573 353.1 13.5 351 12.6
2011-01-14 08:09:11 51°17.351 2°52.569 345.8 13.4 349 12.8
2011-01-14 08:09:17 51°17.373 2°52.563 344.8 13.3 353 12.5
2011-01-14 08:09:22 51°17.392 2°52.56 349.2 13.6 352 12.3
2011-01-14 08:09:27 51°17.41 2°52.554 347.7 13.5 349 12.2
2011-01-14 08:09:32 51°17.429 2°52.553 351 13.4 358 12.4
2011-01-14 08:09:37 51°17.447 2°52.548 351.6 13.5 351 12.2
2011-01-14 08:09:42 51°17.466 2°52.546 350 13.5 354 12.2
2011-01-14 08:09:47 51°17.484 2°52.543 351.2 13.4 355 11.9
2011-01-14 08:09:51 51°17.499 2°52.542 352.8 13.3 355 12.4
2011-01-14 08:09:57 51°17.521 2°52.539 351.3 13.3 356 12.5
2011-01-14 08:10:02 51°17.54 2°52.538 354.4 13.5 358 12.5
2011-01-14 08:10:07 51°17.558 2°52.535 352.9 13.3 354 12.2
2011-01-14 08:10:12 51°17.577 2°52.535 354 13.5 357 13
2011-01-14 08:10:17 51°17.595 2°52.535 353.6 13.5 3 12.4
2011-01-14 08:10:22 51°17.614 2°52.533 357.7 13.4 353 12
2011-01-14 08:10:27 51°17.633 2°52.532 352.6 13.2 358 12.4
2011-01-14 08:10:32 51°17.651 2°52.529 352.1 13.6 355 12.5
2011-01-14 08:10:37 51°17.669 2°52.527 352.4 13.4 356 12.4
2011-01-14 08:10:42 51°17.688 2°52.525 354.4 13.6 356 12.2
2011-01-14 08:10:47 51°17.707 2°52.522 353 13.6 354 11.9
2011-01-14 08:10:52 51°17.726 2°52.522 353.1 13.4 357 11.8
2011-01-14 08:10:57 51°17.745 2°52.52 356.2 13.6 355 12.7
2011-01-14 08:11:02 51°17.763 2°52.514 349.3 13.3 349 12.5
2011-01-14 08:11:07 51°17.781 2°52.51 347 13.4 353 11.8
2011-01-14 08:11:12 51°17.8 2°52.506 349.1 13.6 353 11.4
2011-01-14 08:11:17 51°17.818 2°52.504 350.9 13.4 355 12
2011-01-14 08:11:22 51°17.836 2°52.498 349.5 13.2 348 11.8
2011-01-14 08:11:27 51°17.855 2°52.495 347.5 13.4 353 12.5
2011-01-14 08:11:32 51°17.873 2°52.491 349.2 13.4 352 12.6
2011-01-14 08:11:37 51°17.892 2°52.488 349.8 13.6 355 12.5
2011-01-14 08:11:42 51°17.91 2°52.484 349.5 13.4 352 12.3
2011-01-14 08:11:47 51°17.929 2°52.482 351.3 13.4 356 12.6
2011-01-14 08:11:52 51°17.947 2°52.479 351.4 13.4 355 13.7
2011-01-14 08:11:57 51°17.966 2°52.477 352.1 13.4 356 12.9
2011-01-14 08:12:02 51°17.985 2°52.475 353.4 13.6 355 12.9
2011-01-14 08:12:07 51°18.003 2°52.472 351.2 13.3 354 12.7
2011-01-14 08:12:12 51°18.022 2°52.471 353.3 13.5 356 13.2
2011-01-14 08:12:17 51°18.041 2°52.467 351.2 13.5 353 13
2011-01-14 08:12:22 51°18.06 2°52.467 353.2 13.5 357 12.4
2011-01-14 08:12:27 51°18.079 2°52.465 352.7 13.6 358 12.8
2011-01-14 08:12:32 51°18.097 2°52.461 352.6 13.4 355 12.9
2011-01-14 08:12:37 51°18.116 2°52.46 353.6 13.6 358 12.7
2011-01-14 08:12:42 51°18.135 2°52.456 353.5 13.6 351 12.7
2011-01-14 08:12:47 51°18.153 2°52.456 351.9 13.5 358 12.5
2011-01-14 08:12:52 51°18.172 2°52.453 352.8 13.6 354 12.8
2011-01-14 08:12:57 51°18.191 2°52.451 352.1 13.4 357 12.6
2011-01-14 08:13:02 51°18.21 2°52.449 354.2 13.5 356 12.6
2011-01-14 08:13:07 51°18.228 2°52.446 352.1 13.5 353 12.8
2011-01-14 08:13:11 51°18.243 2°52.446 353.4 13.6 359 13.1
2011-01-14 08:13:17 51°18.265 2°52.44 351.2 13.4 350 13.1
2011-01-14 08:13:22 51°18.284 2°52.439 352.2 13.6 357 12.4
2011-01-14 08:13:27 51°18.302 2°52.435 351.6 13.5 353 12.5
2011-01-14 08:13:32 51°18.321 2°52.434 352.3 13.4 358 13.2
2011-01-14 08:13:37 51°18.339 2°52.431 352.5 13.3 353 13.2
2011-01-14 08:13:42 51°18.358 2°52.429 352.6 13.5 357 13.4
2011-01-14 08:13:47 51°18.377 2°52.425 351.6 13.6 352 13.5
2011-01-14 08:13:52 51°18.396 2°52.426 353.1 13.5 -999 13.2
2011-01-14 08:13:57 51°18.414 2°52.42 354.2 13.4 351 13.1
2011-01-14 08:14:02 51°18.433 2°52.418 350 13.5 356 13.3
2011-01-14 08:14:07 51°18.451 2°52.414 350.6 13.6 353 12.9
2011-01-14 08:14:12 51°18.47 2°52.413 351.2 13.5 357 12.5
2011-01-14 08:14:17 51°18.489 2°52.409 351.8 13.5 353 12.8
2011-01-14 08:14:23 51°18.511 2°52.407 352.3 13.5 357 13.5
2011-01-14 08:14:27 51°18.526 2°52.404 350.4 13.2 352 13.9
2011-01-14 08:14:32 51°18.545 2°52.404 351.6 13.6 359 14
2011-01-14 08:14:37 51°18.563 2°52.397 350.7 13.5 349 13.2
2011-01-14 08:14:42 51°18.582 2°52.398 352.5 13.6 359 13.8
2011-01-14 08:14:47 51°18.6 2°52.391 349.3 13.4 348 13.5
2011-01-14 08:14:52 51°18.618 2°52.388 349.2 13.5 352 13.3
2011-01-14 08:14:57 51°18.637 2°52.385 349.7 13.4 354 13.8
2011-01-14 08:15:02 51°18.656 2°52.382 350.9 13.4 354 13.3
2011-01-14 08:15:07 51°18.674 2°52.383 352.5 13.5 357 13.8
2011-01-14 08:15:12 51°18.693 2°52.379 351.4 13.4 354 14.4
2011-01-14 08:15:17 51°18.711 2°52.378 353.7 13.4 357 13.9
2011-01-14 08:15:22 51°18.73 2°52.375 352.4 13.5 353 14.3
2011-01-14 08:15:27 51°18.749 2°52.374 352.1 13.4 358 14.4
2011-01-14 08:15:32 51°18.767 2°52.37 354.8 13.4 355 14.5
2011-01-14 08:15:37 51°18.786 2°52.369 350.5 13.5 357 15
2011-01-14 08:15:42 51°18.804 2°52.362 348.5 13.3 350 14.3
2011-01-14 08:15:47 51°18.823 2°52.364 352.9 13.5 1 14.5
2011-01-14 08:15:52 51°18.842 2°52.359 352.5 13.6 352 14.5
2011-01-14 08:15:57 51°18.861 2°52.358 350.1 13.6 358 15.1
2011-01-14 08:16:02 51°18.879 2°52.352 352.6 13.5 350 14.6
2011-01-14 08:16:07 51°18.898 2°52.353 352.7 13.6 -999 15.2
2011-01-14 08:16:11 51°18.913 2°52.35 352.6 13.5 355 15.3
2011-01-14 08:16:17 51°18.936 2°52.348 353.4 13.4 356 14.6
2011-01-14 08:16:22 51°18.954 2°52.347 354.6 13.4 356 14.7
2011-01-14 08:16:27 51°18.973 2°52.345 352.9 13.4 356 15
2011-01-14 08:16:32 51°18.992 2°52.344 354.3 13.4 358 15.4
2011-01-14 08:16:37 51°19.011 2°52.345 355.9 13.5 1 16.1
2011-01-14 08:16:42 51°19.029 2°52.34 353.7 13.4 354 15.9
2011-01-14 08:16:47 51°19.048 2°52.342 355.7 13.6 2 15.7
2011-01-14 08:16:51 51°19.063 2°52.339 355.5 13.7 355 15.6
2011-01-14 08:16:57 51°19.086 2°52.339 354.9 13.7 359 15.8
2011-01-14 08:17:02 51°19.104 2°52.336 354.3 13.5 355 15.7
2011-01-14 08:17:07 51°19.123 2°52.337 356 13.5 1 15.7
2011-01-14 08:17:12 51°19.142 2°52.333 354.1 13.6 355 16.1
2011-01-14 08:17:17 51°19.161 2°52.333 353.5 13.6 357 16.3
2011-01-14 08:17:22 51°19.179 2°52.331 352.4 13.5 358 16.8
2011-01-14 08:17:27 51°19.199 2°52.331 356.1 13.6 1 17.1
2011-01-14 08:17:32 51°19.217 2°52.326 352.7 13.5 353 16.6
2011-01-14 08:17:37 51°19.236 2°52.327 354.5 13.7 1 16.6
2011-01-14 08:17:42 51°19.254 2°52.322 354.9 13.6 352 16.1
2011-01-14 08:17:47 51°19.274 2°52.324 356.3 13.8 3 17
2011-01-14 08:17:52 51°19.292 2°52.319 352.3 13.6 351 16.8
2011-01-14 08:17:57 51°19.312 2°52.319 353.5 13.8 358 16.9
2011-01-14 08:18:03 51°19.334 2°52.314 352 13.5 353 16.8
2011-01-14 08:18:07 51°19.349 2°52.317 356 13.8 4 18.2
2011-01-14 08:18:12 51°19.367 2°52.309 353 13.4 348 17.6
2011-01-14 08:18:17 51°19.386 2°52.308 349.8 13.7 355 17.4
2011-01-14 08:18:23 51°19.409 2°52.305 350.7 13.6 354 16.8
2011-01-14 08:18:27 51°19.424 2°52.305 352.4 13.6 359 17
2011-01-14 08:18:32 51°19.443 2°52.302 353.3 13.5 355 17.3
2011-01-14 08:18:37 51°19.461 2°52.301 352.1 13.5 358 17.6
2011-01-14 08:18:42 51°19.48 2°52.301 354.9 13.5 1 17.6
2011-01-14 08:18:47 51°19.499 2°52.298 355.1 13.7 356 18
2011-01-14 08:18:52 51°19.517 2°52.293 348.8 13.3 352 17.9
2011-01-14 08:18:57 51°19.536 2°52.292 349.3 13.3 357 17.8
2011-01-14 08:19:02 51°19.554 2°52.288 351.3 13.4 355 17.5
2011-01-14 08:19:07 51°19.573 2°52.287 353.5 13.5 358 17.5
2011-01-14 08:19:12 51°19.592 2°52.285 353.3 13.5 356 17.2
2011-01-14 08:19:17 51°19.611 2°52.285 354.6 13.6 357 17.5
2011-01-14 08:19:22 51°19.629 2°52.284 354.1 13.6 358 17.3
2011-01-14 08:19:27 51°19.649 2°52.284 356.5 13.7 1 17.8
2011-01-14 08:19:32 51°19.667 2°52.281 353.8 13.6 355 17.8
2011-01-14 08:19:37 51°19.686 2°52.28 353.5 13.8 357 17.3
2011-01-14 08:19:42 51°19.705 2°52.278 354.3 13.7 356 17.8
2011-01-14 08:19:47 51°19.724 2°52.278 352.6 13.6 358 18.5
2011-01-14 08:19:52 51°19.743 2°52.274 353.1 13.7 355 18.3
2011-01-14 08:19:57 51°19.761 2°52.272 351.5 13.3 358 17.9
2011-01-14 08:20:02 51°19.78 2°52.272 355.3 13.5 357 18.4
2011-01-14 08:20:07 51°19.798 2°52.267 351.7 13.4 352 18
2011-01-14 08:20:12 51°19.817 2°52.266 352.6 13.6 358 18.1
2011-01-14 08:20:17 51°19.836 2°52.265 352.4 13.6 357 18.1
2011-01-14 08:20:22 51°19.854 2°52.263 352.3 13.6 356 18.3
2011-01-14 08:20:27 51°19.873 2°52.262 353.1 13.5 358 18
2011-01-14 08:20:32 51°19.892 2°52.26 355.2 13.6 358 18.1
2011-01-14 08:20:37 51°19.911 2°52.257 352.9 13.5 354 18.5
2011-01-14 08:20:42 51°19.929 2°52.257 353 13.5 1 18.5
2011-01-14 08:20:47 51°19.948 2°52.254 353.4 13.5 354 17.9
2011-01-14 08:20:52 51°19.966 2°52.25 351.1 13.4 351 17.7
2011-01-14 08:20:57 51°19.985 2°52.248 349.8 13.3 356 18.4
2011-01-14 08:21:02 51°20.003 2°52.247 351.9 13.3 358 18.4
2011-01-14 08:21:07 51°20.022 2°52.243 353.8 13.5 354 18
2011-01-14 08:21:12 51°20.04 2°52.241 351.8 13.6 354 17.9
2011-01-14 08:21:17 51°20.059 2°52.241 353 13.5 -999 18.2
2011-01-14 08:21:22 51°20.078 2°52.238 353.3 13.4 355 18.6
2011-01-14 08:21:27 51°20.096 2°52.237 352.9 13.3 358 18.7
2011-01-14 08:21:32 51°20.115 2°52.236 353.7 13.3 359 18.7
2011-01-14 08:21:37 51°20.133 2°52.234 354 13.2 355 18.6
2011-01-14 08:21:42 51°20.151 2°52.233 354.5 13.4 358 18.6
2011-01-14 08:21:47 51°20.17 2°52.231 354.6 13.5 356 17.5
2011-01-14 08:21:52 51°20.189 2°52.23 356.2 13.9 359 17.3
2011-01-14 08:21:57 51°20.208 2°52.228 352.7 13.4 355 17.5
2011-01-14 08:22:02 51°20.226 2°52.227 353.5 13.4 -999 17.9
2011-01-14 08:22:07 51°20.245 2°52.225 354.6 13.5 356 17.7
2011-01-14 08:22:12 51°20.264 2°52.223 353.2 13.4 355 17.2
2011-01-14 08:22:17 51°20.283 2°52.223 354.7 13.5 358 17.2
2011-01-14 08:22:22 51°20.301 2°52.221 355 13.6 358 16.8
2011-01-14 08:22:27 51°20.32 2°52.219 353.8 13.5 356 16.5
2011-01-14 08:22:32 51°20.338 2°52.22 356.6 13.4 1 16.3
2011-01-14 08:22:37 51°20.357 2°52.217 354.7 13.3 354 16.8
2011-01-14 08:22:42 51°20.375 2°52.215 352.4 13.1 358 16.4
2011-01-14 08:22:47 51°20.394 2°52.214 355.7 13.5 358 16.7
2011-01-14 08:22:52 51°20.412 2°52.21 351.6 13.4 353 16.7
2011-01-14 08:22:57 51°20.431 2°52.209 350.7 13.4 357 17.1
2011-01-14 08:23:03 51°20.453 2°52.204 352.9 13.4 353 17.3
2011-01-14 08:23:07 51°20.467 2°52.203 350.1 13.1 354 18
2011-01-14 08:23:12 51°20.486 2°52.201 353.6 13.5 358 17.3
2011-01-14 08:23:17 51°20.505 2°52.199 353.7 13.7 356 16.8
2011-01-14 08:23:22 51°20.524 2°52.196 351.4 13.2 354 16.8
2011-01-14 08:23:27 51°20.543 2°52.197 354.3 13.6 3 17.1
2011-01-14 08:23:32 51°20.56 2°52.189 352.4 13.3 347 15.7
2011-01-14 08:23:37 51°20.578 2°52.187 347.4 13 354 16.1
2011-01-14 08:23:42 51°20.597 2°52.183 349.3 13.4 352 16.6
2011-01-14 08:23:47 51°20.615 2°52.181 350.9 13.2 355 16.2
2011-01-14 08:23:52 51°20.634 2°52.182 354 13.2 -999 16.8
2011-01-14 08:23:57 51°20.652 2°52.178 354.5 13.4 355 16.5
2011-01-14 08:24:02 51°20.671 2°52.18 356.1 13.5 3 16.3
2011-01-14 08:24:07 51°20.69 2°52.178 356.9 13.5 356 16.3
2011-01-14 08:24:12 51°20.709 2°52.182 358.9 13.7 7 16.5
2011-01-14 08:24:17 51°20.727 2°52.181 359.2 13.4 359 16.7
2011-01-14 08:24:22 51°20.745 2°52.182 358 13.3 4 16.2
2011-01-14 08:24:27 51°20.764 2°52.185 2.1 13.6 7 16.6
2011-01-14 08:24:32 51°20.783 2°52.185 359.6 13.5 1 16.4
2011-01-14 08:24:37 51°20.802 2°52.189 -999 13.5 6 16.6
2011-01-14 08:24:42 51°20.821 2°52.189 0.9 13.5 2 15.6
2011-01-14 08:24:47 51°20.84 2°52.193 2.2 13.9 7 15.7
2011-01-14 08:24:52 51°20.859 2°52.193 359.6 13.6 2 16.2
2011-01-14 08:24:57 51°20.877 2°52.196 1.2 13.6 5 16.1
2011-01-14 08:25:03 51°20.9 2°52.196 0.4 13.5 -999 16.2
2011-01-14 08:25:07 51°20.915 2°52.2 1.3 13.5 7 16.5
2011-01-14 08:25:12 51°20.933 2°52.201 0.5 13.4 3 16.6
2011-01-14 08:25:17 51°20.952 2°52.203 1.8 13.3 5 16.9
2011-01-14 08:25:22 51°20.97 2°52.207 2.4 13.5 8 16.9
2011-01-14 08:25:27 51°20.989 2°52.207 2.4 13.6 2 16.8
2011-01-14 08:25:32 51°21.008 2°52.213 2.1 13.6 9 17.5
2011-01-14 08:25:37 51°21.026 2°52.215 1.7 13.4 5 17.7
2011-01-14 08:25:42 51°21.045 2°52.217 3.4 13.7 4 17.8
2011-01-14 08:25:47 51°21.064 2°52.218 -999 13.6 1 17.9
2011-01-14 08:25:52 51°21.083 2°52.22 359.7 13.7 3 17.8
2011-01-14 08:25:57 51°21.102 2°52.222 1.1 13.7 5 17.9
2011-01-14 08:26:02 51°21.121 2°52.223 359.8 13.6 -999 17.9
2011-01-14 08:26:07 51°21.14 2°52.227 1.1 13.4 7 17.8
2011-01-14 08:26:12 51°21.159 2°52.228 2.3 13.7 1 18.8
2011-01-14 08:26:17 51°21.177 2°52.225 355.1 13.2 358 18.8
2011-01-14 08:26:22 51°21.196 2°52.228 357.2 13.3 3 17.7
2011-01-14 08:26:27 51°21.214 2°52.228 357.9 13.5 -999 18.3
2011-01-14 08:26:32 51°21.233 2°52.23 0.1 13.6 5 19.3
2011-01-14 08:26:37 51°21.251 2°52.23 358.4 13.5 2 19.2
2011-01-14 08:26:42 51°21.27 2°52.232 359.4 13.6 1 19.3
2011-01-14 08:26:47 51°21.289 2°52.233 358.6 13.6 2 19.8
2011-01-14 08:26:52 51°21.308 2°52.235 0.2 13.6 4 19.6
2011-01-14 08:26:57 51°21.327 2°52.236 359.4 13.8 4 19.8
2011-01-14 08:27:02 51°21.346 2°52.239 1.9 13.8 1 19.9
2011-01-14 08:27:07 51°21.365 2°52.242 358.6 13.6 5 20.8
2011-01-14 08:27:12 51°21.384 2°52.241 359.1 13.6 1 20.9
2011-01-14 08:27:17 51°21.403 2°52.243 359.5 13.6 3 20.1
2011-01-14 08:27:22 51°21.422 2°52.246 359.9 13.7 4 20.8
2011-01-14 08:27:27 51°21.441 2°52.246 0.1 13.7 1 21
2011-01-14 08:27:32 51°21.459 2°52.251 1.1 13.7 7 21.6
2011-01-14 08:27:37 51°21.478 2°52.251 -999 13.5 2 22.2
2011-01-14 08:27:42 51°21.497 2°52.254 359.7 13.6 8 21.7
2011-01-14 08:27:47 51°21.516 2°52.255 2.5 13.7 3 22
2011-01-14 08:27:52 51°21.535 2°52.256 357.4 13.6 1 22.4
2011-01-14 08:27:57 51°21.555 2°52.258 358 13.8 2 22
2011-01-14 08:28:02 51°21.573 2°52.26 359.7 13.7 5 22.4
2011-01-14 08:28:07 51°21.593 2°52.261 0.3 13.8 3 22.8
2011-01-14 08:28:12 51°21.612 2°52.265 0.1 13.9 7 23.2
2011-01-14 08:28:17 51°21.631 2°52.267 359.9 13.9 3 23.5
2011-01-14 08:28:22 51°21.65 2°52.27 0.7 13.9 5 23.5
2011-01-14 08:28:27 51°21.669 2°52.272 0.8 14 5 24.2
2011-01-14 08:28:32 51°21.689 2°52.273 359.3 13.9 4 23.5
2011-01-14 08:28:37 51°21.708 2°52.278 2.3 13.9 6 24
2011-01-14 08:28:42 51°21.727 2°52.279 -999 13.8 4 24.6
2011-01-14 08:28:47 51°21.747 2°52.282 1.2 14.1 5 24.3
2011-01-14 08:28:52 51°21.766 2°52.283 359.5 13.9 2 24.6
2011-01-14 08:28:57 51°21.785 2°52.286 0.8 13.8 4 25.1
2011-01-14 08:29:02 51°21.804 2°52.288 0.1 13.8 6 25.7
2011-01-14 08:29:07 51°21.823 2°52.29 0.8 13.9 3 25.4
2011-01-14 08:29:12 51°21.842 2°52.293 1.5 13.6 4 25.1
2011-01-14 08:29:17 51°21.861 2°52.297 3 13.9 6 25.7
2011-01-14 08:29:22 51°21.88 2°52.296 358.9 13.8 -999 26.2
2011-01-14 08:29:27 51°21.899 2°52.298 357.9 13.7 4 25.4
2011-01-14 08:29:32 51°21.919 2°52.303 1.2 14.2 7 26.2
2011-01-14 08:29:37 51°21.938 2°52.299 357.3 13.7 355 -999
2011-01-14 08:29:43 51°21.96 2°52.301 355.9 13.8 4 26.4
2011-01-14 08:29:47 51°21.975 2°52.299 354.6 13.6 357 26.9
2011-01-14 08:29:52 51°21.994 2°52.3 354.1 13.6 2 26.2
2011-01-14 08:29:57 51°22.013 2°52.3 356.2 13.7 2 26.1
2011-01-14 08:30:03 51°22.035 2°52.303 357.1 13.6 6 26.3
2011-01-14 08:30:07 51°22.051 2°52.303 359 13.7 3 26.1
2011-01-14 08:30:12 51°22.07 2°52.305 358.6 13.9 3 26.2
2011-01-14 08:30:17 51°22.089 2°52.307 359.5 13.7 5 26.2
2011-01-14 08:30:22 51°22.108 2°52.311 1 13.9 9 26.3
2011-01-14 08:30:27 51°22.127 2°52.31 0.1 13.9 -999 26.1
2011-01-14 08:30:32 51°22.146 2°52.314 359.9 13.6 8 26
2011-01-14 08:30:37 51°22.165 2°52.316 2 13.7 5 26.2
2011-01-14 08:30:42 51°22.184 2°52.317 359.5 13.9 3 26
2011-01-14 08:30:47 51°22.203 2°52.321 359.7 13.7 6 26.3
2011-01-14 08:30:52 51°22.222 2°52.324 1.4 13.8 6 25.7
2011-01-14 08:30:57 51°22.242 2°52.325 1.9 13.8 1 25.7
2011-01-14 08:31:02 51°22.26 2°52.328 358.4 13.6 8 26.3
2011-01-14 08:31:07 51°22.279 2°52.328 1.6 13.6 2 25.4
2011-01-14 08:31:12 51°22.298 2°52.331 358.3 13.6 5 26.2
2011-01-14 08:31:17 51°22.317 2°52.332 357.9 13.6 4 25.9
2011-01-14 08:31:22 51°22.336 2°52.335 1 14 5 25.6
2011-01-14 08:31:27 51°22.356 2°52.334 358.5 13.8 358 25.1
2011-01-14 08:31:32 51°22.374 2°52.338 357.9 13.7 6 25.7
2011-01-14 08:31:37 51°22.394 2°52.336 0.3 13.9 358 25.1
2011-01-14 08:31:42 51°22.413 2°52.338 356.2 13.7 2 24.8
2011-01-14 08:31:47 51°22.432 2°52.338 357.5 13.7 -999 24.5
2011-01-14 08:31:52 51°22.45 2°52.34 357.9 13.7 4 24.4
2011-01-14 08:31:57 51°22.47 2°52.341 358.9 13.9 3 24.6
2011-01-14 08:32:03 51°22.493 2°52.343 358.8 13.8 3 24.7
2011-01-14 08:32:07 51°22.508 2°52.344 359.4 13.6 3 24.4
2011-01-14 08:32:12 51°22.527 2°52.348 1.5 14.3 8 25.1
2011-01-14 08:32:17 51°22.546 2°52.345 359.4 13.9 356 24.5
2011-01-14 08:32:22 51°22.565 2°52.35 357.9 13.7 8 25.1
2011-01-14 08:32:27 51°22.585 2°52.349 359.8 13.9 359 25.1
2011-01-14 08:32:32 51°22.604 2°52.348 355.4 13.6 359 24.9
2011-01-14 08:32:37 51°22.623 2°52.35 357.2 13.7 2 24.5
2011-01-14 08:32:42 51°22.642 2°52.352 357.7 13.8 1 25.6
2011-01-14 08:32:47 51°22.66 2°52.351 355 13.4 359 25.2
2011-01-14 08:32:52 51°22.68 2°52.353 2.1 13.7 2 25
2011-01-14 08:32:57 51°22.698 2°52.353 357.8 13.5 359 25.3
2011-01-14 08:33:02 51°22.717 2°52.352 356.2 13.4 359 25
2011-01-14 08:33:07 51°22.736 2°52.354 358.1 13.5 3 24.8
2011-01-14 08:33:12 51°22.755 2°52.355 0.7 13.6 -999 24.4
2011-01-14 08:33:17 51°22.773 2°52.355 357.9 13.4 1 23.1
2011-01-14 08:33:22 51°22.792 2°52.359 359.9 14 6 24.6
2011-01-14 08:33:27 51°22.811 2°52.356 357.7 13.7 357 25.6
2011-01-14 08:33:32 51°22.83 2°52.362 359.4 13.7 9 26
2011-01-14 08:33:37 51°22.85 2°52.359 0.4 13.9 356 25.9
2011-01-14 08:33:43 51°22.872 2°52.36 355 13.2 -999 25.2
2011-01-14 08:33:47 51°22.887 2°52.359 357.7 13.7 -999 25.7
2011-01-14 08:33:52 51°22.906 2°52.356 353.2 13.7 354 25.4
2011-01-14 08:33:57 51°22.924 2°52.357 353.6 13.4 3 25.5
2011-01-14 08:34:03 51°22.947 2°52.356 359.4 13.6 359 25.9
2011-01-14 08:34:07 51°22.962 2°52.355 354.9 13.6 357 25.3
2011-01-14 08:34:12 51°22.981 2°52.353 352.8 13.5 357 25.1
2011-01-14 08:34:17 51°23 2°52.354 355.5 13.5 1 24.1
2011-01-14 08:34:22 51°23.019 2°52.357 357.1 13.9 6 26.2
2011-01-14 08:34:27 51°23.038 2°52.355 357.9 13.5 358 25.4
2011-01-14 08:34:32 51°23.056 2°52.355 356 13.5 -999 25.6
2011-01-14 08:34:37 51°23.075 2°52.353 354.7 13.6 357 25.8
2011-01-14 08:34:42 51°23.094 2°52.357 357.5 13.7 6 25.5
2011-01-14 08:34:47 51°23.113 2°52.354 358.8 13.7 358 24.4
2011-01-14 08:34:52 51°23.132 2°52.354 353.7 13.6 358 24.5
2011-01-14 08:34:57 51°23.151 2°52.353 354.7 13.6 1 23.3
2011-01-14 08:35:02 51°23.17 2°52.357 0.4 13.6 4 21.6
2011-01-14 08:35:07 51°23.189 2°52.356 358.6 13.8 -999 24.6
2011-01-14 08:35:12 51°23.208 2°52.355 355.3 13.8 358 24.4
2011-01-14 08:35:17 51°23.227 2°52.358 357.1 13.7 5 23.5
2011-01-14 08:35:22 51°23.246 2°52.36 359.7 13.9 4 23.3
2011-01-14 08:35:27 51°23.265 2°52.358 359 13.7 357 23.2
2011-01-14 08:35:32 51°23.284 2°52.363 359.4 13.8 7 22.7
2011-01-14 08:35:37 51°23.303 2°52.363 0.6 13.4 3 22.7
2011-01-14 08:35:43 51°23.326 2°52.369 3.9 14.1 9 23.3
2011-01-14 08:35:47 51°23.341 2°52.365 359.6 13.8 355 22.5
2011-01-14 08:35:52 51°23.36 2°52.371 358 13.7 8 23.5
2011-01-14 08:35:57 51°23.379 2°52.369 0.7 13.7 358 21.9
2011-01-14 08:36:02 51°23.398 2°52.373 359.7 13.8 7 22.8
2011-01-14 08:36:07 51°23.417 2°52.372 359.8 13.7 1 22.6
2011-01-14 08:36:12 51°23.436 2°52.377 0.9 13.7 7 21.5
2011-01-14 08:36:17 51°23.455 2°52.378 1.9 13.7 4 22.2
2011-01-14 08:36:22 51°23.475 2°52.382 2.6 14.1 6 22.1
2011-01-14 08:36:27 51°23.493 2°52.384 2.4 13.7 3 21.8
2011-01-14 08:36:31 51°23.509 2°52.389 3.9 14 7 22
2011-01-14 08:36:37 51°23.532 2°52.387 1.1 13.8 359 21.3
2011-01-14 08:36:42 51°23.551 2°52.394 1.9 14 11 21.4
2011-01-14 08:36:47 51°23.57 2°52.392 3.5 13.6 359 19.8
2011-01-14 08:36:52 51°23.589 2°52.395 358.4 13.7 4 19.8
2011-01-14 08:36:57 51°23.608 2°52.395 359 13.7 2 19.9
2011-01-14 08:37:02 51°23.627 2°52.4 0.9 13.8 7 18.6
2011-01-14 08:37:07 51°23.646 2°52.399 359.2 13.9 -999 20.2
2011-01-14 08:37:11 51°23.661 2°52.402 1.5 13.9 6 18.8
2011-01-14 08:37:17 51°23.684 2°52.405 3 14 3 19.4
2011-01-14 08:37:22 51°23.703 2°52.405 358 13.8 2 19.4
2011-01-14 08:37:27 51°23.722 2°52.407 358.3 13.5 3 18.1
2011-01-14 08:37:32 51°23.741 2°52.412 5 14 6 17.6
2011-01-14 08:37:37 51°23.76 2°52.409 358.3 13.5 -999 17.7
2011-01-14 08:37:42 51°23.779 2°52.41 358 13.8 359 18
2011-01-14 08:37:47 51°23.798 2°52.412 358.2 13.6 1 18.3
2011-01-14 08:37:52 51°23.817 2°52.415 358.7 13.6 6 16.5
2011-01-14 08:37:57 51°23.836 2°52.413 1.4 13.7 357 18.1
2011-01-14 08:38:02 51°23.854 2°52.412 354.9 13.5 358 18.6
2011-01-14 08:38:07 51°23.873 2°52.41 353.9 13.6 358 18.7
2011-01-14 08:38:12 51°23.892 2°52.412 355.5 13.8 2 19.5
2011-01-14 08:38:17 51°23.911 2°52.411 356.8 13.5 1 19.4
2011-01-14 08:38:23 51°23.934 2°52.411 0.1 13.8 359 19.5
2011-01-14 08:38:27 51°23.949 2°52.411 354.9 13.6 357 20.2
2011-01-14 08:38:32 51°23.968 2°52.411 356.6 13.5 1 19.3
2011-01-14 08:38:37 51°23.987 2°52.413 0.8 13.9 3 20.6
2011-01-14 08:38:43 51°24.009 2°52.406 353.2 13.2 349 20.6
2011-01-14 08:38:47 51°24.024 2°52.405 349.9 13.3 356 20.5
2011-01-14 08:38:52 51°24.042 2°52.404 353.7 13.6 359 20.7
2011-01-14 08:38:57 51°24.061 2°52.401 352.7 13.4 356 20.5
2011-01-14 08:39:02 51°24.08 2°52.404 356.6 13.8 4 20.4
2011-01-14 08:39:07 51°24.098 2°52.399 357.2 13.5 353 17.7
2011-01-14 08:39:12 51°24.117 2°52.403 354.8 13.7 3 18.9
2011-01-14 08:39:17 51°24.136 2°52.399 355.1 13.4 355 20
2011-01-14 08:39:22 51°24.155 2°52.406 0.1 13.8 10 20.9
2011-01-14 08:39:27 51°24.174 2°52.401 0.7 13.7 354 21.3
2011-01-14 08:39:32 51°24.192 2°52.401 353.8 13.3 359 21.6
2011-01-14 08:39:37 51°24.211 2°52.4 355.1 13.3 -999 21.9
2011-01-14 08:39:42 51°24.229 2°52.402 358.2 13.5 2 19.8
2011-01-14 08:39:47 51°24.248 2°52.403 359.3 13.6 2 20
2011-01-14 08:39:52 51°24.267 2°52.405 0.4 13.3 7 20.4
2011-01-14 08:39:57 51°24.285 2°52.408 3.8 13.5 2 19.2
2011-01-14 08:40:02 51°24.304 2°52.406 359.1 13.5 359 20.4
2011-01-14 08:40:07 51°24.323 2°52.409 358.5 13.7 5 21.6
2011-01-14 08:40:12 51°24.342 2°52.409 358.9 13.5 -999 21.6
2011-01-14 08:40:17 51°24.36 2°52.413 1.5 13.4 6 21.3
2011-01-14 08:40:22 51°24.379 2°52.414 0.7 13.6 4 21.1
2011-01-14 08:40:27 51°24.398 2°52.417 3.2 13.8 6 19.6
2011-01-14 08:40:32 51°24.417 2°52.421 2.7 14 9 21.2
2011-01-14 08:40:37 51°24.435 2°52.419 358.3 13.1 1 20.5
2011-01-14 08:40:42 51°24.454 2°52.424 4.2 13.7 7 19.5
2011-01-14 08:40:47 51°24.473 2°52.424 2.2 13.8 1 19.2
2011-01-14 08:40:51 51°24.488 2°52.423 356.6 13.2 1 20.1
2011-01-14 08:40:57 51°24.511 2°52.427 0.8 13.7 5 20.9
2011-01-14 08:41:02 51°24.53 2°52.429 1.1 14 5 21.2
2011-01-14 08:41:07 51°24.549 2°52.429 0.2 13.7 -999 21.3
2011-01-14 08:41:12 51°24.567 2°52.431 0.6 13.3 5 20.8
2011-01-14 08:41:17 51°24.586 2°52.437 3 14 10 21.7
2011-01-14 08:41:22 51°24.605 2°52.433 1.4 13.6 355 21.8
2011-01-14 08:41:27 51°24.623 2°52.431 353.1 13.2 355 21.8
2011-01-14 08:41:32 51°24.642 2°52.433 356.4 13.6 -999 23.2
2011-01-14 08:41:37 51°24.661 2°52.433 355.5 13.6 359 22.8
2011-01-14 08:41:42 51°24.681 2°52.434 0.4 13.7 2 22.6
2011-01-14 08:41:47 51°24.699 2°52.431 356.6 13.5 357 23
2011-01-14 08:41:52 51°24.719 2°52.433 356.8 13.8 2 22.9
2011-01-14 08:41:57 51°24.738 2°52.433 359.6 13.7 -999 22.9
2011-01-14 08:42:02 51°24.757 2°52.433 358.6 13.7 359 22.9
2011-01-14 08:42:07 51°24.776 2°52.438 0.6 13.9 8 24.4
2011-01-14 08:42:12 51°24.795 2°52.437 0.4 13.8 359 24.5
2011-01-14 08:42:17 51°24.814 2°52.44 0.8 13.8 5 24.5
2011-01-14 08:42:22 51°24.832 2°52.442 2.4 13.4 5 24.6
2011-01-14 08:42:27 51°24.851 2°52.447 3.3 13.6 7 25.4
2011-01-14 08:42:32 51°24.871 2°52.446 3.7 14 -999 24.8
2011-01-14 08:42:37 51°24.89 2°52.449 0.7 13.6 4 25
2011-01-14 08:42:42 51°24.908 2°52.452 1.6 13.5 5 25.3
2011-01-14 08:42:47 51°24.927 2°52.456 4.5 14 9 26.2
2011-01-14 08:42:52 51°24.946 2°52.454 0.8 13.7 357 25.5
2011-01-14 08:42:57 51°24.965 2°52.458 358.9 13.4 5 25.9
2011-01-14 08:43:02 51°24.984 2°52.46 1.9 13.8 4 26.1
2011-01-14 08:43:07 51°25.003 2°52.461 0.7 13.9 3 26.3
2011-01-14 08:43:12 51°25.022 2°52.464 -999 13.7 6 26.2
2011-01-14 08:43:17 51°25.041 2°52.465 1.9 13.8 2 25.7
2011-01-14 08:43:22 51°25.06 2°52.467 0.6 13.8 3 26.2
2011-01-14 08:43:27 51°25.078 2°52.47 0.2 13.5 4 26
2011-01-14 08:43:32 51°25.097 2°52.471 4.3 13.6 1 26.1
2011-01-14 08:43:37 51°25.116 2°52.473 0.1 13.5 2 26
2011-01-14 08:43:42 51°25.135 2°52.473 358.8 13.6 -999 26
2011-01-14 08:43:47 51°25.154 2°52.477 0.9 13.5 7 25.9
2011-01-14 08:43:52 51°25.173 2°52.48 2.4 13.8 6 25.9
2011-01-14 08:43:57 51°25.191 2°52.48 1.7 13.6 1 25.1
2011-01-14 08:44:02 51°25.211 2°52.486 3.1 14 9 25.7
2011-01-14 08:44:07 51°25.23 2°52.485 1.7 13.9 1 25.3
2011-01-14 08:44:12 51°25.249 2°52.488 0.1 13.7 5 25.1
2011-01-14 08:44:17 51°25.268 2°52.49 1.9 13.8 4 25
2011-01-14 08:44:22 51°25.287 2°52.492 2.2 13.7 3 24.4
2011-01-14 08:44:27 51°25.306 2°52.497 2.3 14 9 26.1
2011-01-14 08:44:32 51°25.325 2°52.496 359.4 13.6 359 25
2011-01-14 08:44:37 51°25.344 2°52.5 3.7 14.1 5 24.9
2011-01-14 08:44:42 51°25.364 2°52.499 359.3 13.7 358 25.4
2011-01-14 08:44:47 51°25.382 2°52.498 356.5 13.3 358 25.2
2011-01-14 08:44:51 51°25.398 2°52.502 -999 14.2 6 26
2011-01-14 08:44:57 51°25.42 2°52.496 356.3 13.5 349 24.8
2011-01-14 08:45:02 51°25.438 2°52.5 353 13.5 5 26.3
2011-01-14 08:45:07 51°25.457 2°52.494 353.6 13.4 352 25.8
2011-01-14 08:45:12 51°25.476 2°52.498 357.2 13.6 6 26
2011-01-14 08:45:17 51°25.494 2°52.496 357.7 13.6 357 25.6
2011-01-14 08:45:22 51°25.513 2°52.499 358.2 13.7 5 25.6
2011-01-14 08:45:27 51°25.533 2°52.501 1 14 6 27.2
2011-01-14 08:45:33 51°25.555 2°52.505 358.3 13.3 6 26.1
2011-01-14 08:45:38 51°25.574 2°52.508 7 13.9 8 27.2
2011-01-14 08:45:42 51°25.589 2°52.505 359.2 13.2 356 26.5
2011-01-14 08:45:47 51°25.608 2°52.511 359.9 13.8 7 27.3
2011-01-14 08:45:52 51°25.626 2°52.507 357.2 13.6 357 26.9
2011-01-14 08:45:57 51°25.645 2°52.511 358.3 13.8 6 27.6
2011-01-14 08:46:02 51°25.664 2°52.509 358.4 13.4 359 27.6
2011-01-14 08:46:07 51°25.683 2°52.514 1.2 14 7 28.6
2011-01-14 08:46:12 51°25.703 2°52.509 357.3 13.9 352 28.1
2011-01-14 08:46:17 51°25.721 2°52.514 357.9 13.7 7 28.8
2011-01-14 08:46:22 51°25.74 2°52.514 359 13.5 1 29.4
2011-01-14 08:46:27 51°25.759 2°52.516 0.8 13.6 5 28.7
2011-01-14 08:46:32 51°25.778 2°52.52 0.5 13.9 6 29.3
2011-01-14 08:46:37 51°25.797 2°52.52 0.3 13.6 2 29.2
2011-01-14 08:46:42 51°25.816 2°52.525 1 14 8 28.5
2011-01-14 08:46:47 51°25.835 2°52.522 2.3 13.9 359 28.7
2011-01-14 08:46:52 51°25.854 2°52.522 354 13.2 -999 28.9
2011-01-14 08:46:57 51°25.873 2°52.521 355.7 13.7 357 29.3
2011-01-14 08:47:02 51°25.891 2°52.52 354.3 13.3 -999 29.6
2011-01-14 08:47:07 51°25.91 2°52.523 358.6 13.5 6 29.2
2011-01-14 08:47:11 51°25.925 2°52.521 357.1 13.5 355 29.1
2011-01-14 08:47:17 51°25.947 2°52.521 354.7 13.7 2 30.1
2011-01-14 08:47:22 51°25.966 2°52.52 357.5 13.6 -999 29.8
2011-01-14 08:47:27 51°25.986 2°52.522 358 13.8 3 29.8
2011-01-14 08:47:32 51°26.004 2°52.521 357 13.8 359 30
2011-01-14 08:47:37 51°26.023 2°52.523 359 13.7 3 30.1
2011-01-14 08:47:42 51°26.042 2°52.524 359.1 13.7 1 30
2011-01-14 08:47:47 51°26.061 2°52.526 359.5 13.8 4 30.7
2011-01-14 08:47:52 51°26.08 2°52.525 358.4 13.6 358 29.9
2011-01-14 08:47:57 51°26.1 2°52.529 1.3 14 7 30.8
2011-01-14 08:48:02 51°26.118 2°52.525 357.7 13.5 356 30.3
2011-01-14 08:48:07 51°26.137 2°52.527 356.3 13.6 2 29.9
2011-01-14 08:48:12 51°26.157 2°52.527 359 13.8 2 30.3
2011-01-14 08:48:17 51°26.175 2°52.524 354.3 13.6 354 29.9
2011-01-14 08:48:22 51°26.194 2°52.527 356.1 13.7 4 30.4
2011-01-14 08:48:27 51°26.213 2°52.523 356.9 13.6 355 28.9
2011-01-14 08:48:32 51°26.232 2°52.525 356.7 13.6 -999 29
2011-01-14 08:48:37 51°26.25 2°52.525 356.1 13.4 359 29
2011-01-14 08:48:42 51°26.269 2°52.526 0.1 13.5 -999 29.3
2011-01-14 08:48:47 51°26.288 2°52.525 354.8 13.4 357 29.4
2011-01-14 08:48:52 51°26.307 2°52.522 354.7 13.7 357 29.7
2011-01-14 08:48:57 51°26.326 2°52.525 354.8 13.8 7 29.7
2011-01-14 08:49:02 51°26.344 2°52.519 356.9 13.4 348 28.8
2011-01-14 08:49:07 51°26.363 2°52.52 351.4 13.3 358 29.7
2011-01-14 08:49:12 51°26.381 2°52.515 351.8 13.4 352 29.5
2011-01-14 08:49:17 51°26.4 2°52.517 354.6 13.7 5 29.7
2011-01-14 08:49:22 51°26.418 2°52.513 356.4 13.5 351 29
2011-01-14 08:49:27 51°26.437 2°52.516 353.5 13.6 2 30.9
2011-01-14 08:49:32 51°26.455 2°52.511 352.1 13.5 352 30.3
2011-01-14 08:49:37 51°26.475 2°52.515 357.5 13.8 6 30.1
2011-01-14 08:49:42 51°26.493 2°52.509 353.9 13.4 350 29
2011-01-14 08:49:47 51°26.511 2°52.507 349.7 13.3 355 29.7
2011-01-14 08:49:52 51°26.53 2°52.505 351.7 13.5 357 29.5
2011-01-14 08:49:57 51°26.549 2°52.504 354.2 13.7 359 29.6
2011-01-14 08:50:02 51°26.567 2°52.499 351.1 13.5 354 28.8
2011-01-14 08:50:07 51°26.586 2°52.5 355 13.7 1 28.6
2011-01-14 08:50:12 51°26.605 2°52.498 353.8 13.5 356 29.5
2011-01-14 08:50:17 51°26.624 2°52.499 356.3 13.6 2 29.6
2011-01-14 08:50:22 51°26.643 2°52.498 356.9 13.7 357 29.4
2011-01-14 08:50:27 51°26.662 2°52.5 356.4 13.6 3 29.8
2011-01-14 08:50:32 51°26.681 2°52.501 358.4 13.6 4 29.9
2011-01-14 08:50:37 51°26.7 2°52.499 358.4 13.7 358 28.7
2011-01-14 08:50:42 51°26.719 2°52.506 358.3 14 10 30.7
2011-01-14 08:50:47 51°26.737 2°52.502 358.1 13.4 355 28.5
2011-01-14 08:50:52 51°26.757 2°52.505 1.4 13.9 6 29.1
2011-01-14 08:50:57 51°26.775 2°52.501 354.1 13.3 356 29
2011-01-14 08:51:02 51°26.794 2°52.501 354 13.4 358 28.6
2011-01-14 08:51:07 51°26.812 2°52.499 354 13.5 355 28.6
2011-01-14 08:51:12 51°26.831 2°52.502 356.6 13.6 5 29
2011-01-14 08:51:17 51°26.849 2°52.5 356.9 13.5 -999 29
2011-01-14 08:51:22 51°26.868 2°52.501 358.3 13.7 -999 29
2011-01-14 08:51:27 51°26.887 2°52.502 356 13.5 1 29.4
2011-01-14 08:51:32 51°26.906 2°52.503 359.6 13.7 2 28.3
2011-01-14 08:51:37 51°26.925 2°52.503 358.3 13.7 1 28.4
2011-01-14 08:51:42 51°26.944 2°52.505 356.5 13.6 4 28.5
2011-01-14 08:51:47 51°26.963 2°52.506 359.1 13.6 4 28.9
2011-01-14 08:51:52 51°26.982 2°52.508 358.6 13.7 2 27.8
2011-01-14 08:51:57 51°27.001 2°52.506 0.5 14 -999 25.6
2011-01-14 08:52:02 51°27.02 2°52.508 356.3 13.8 3 28
2011-01-14 08:52:07 51°27.039 2°52.506 356.3 13.8 358 28
2011-01-14 08:52:12 51°27.059 2°52.507 356 13.9 1 27
2011-01-14 08:52:17 51°27.078 2°52.508 358.1 13.8 2 23
2011-01-14 08:52:22 51°27.096 2°52.513 2.4 13.7 8 24
2011-01-14 08:52:27 51°27.115 2°52.518 3.3 13.9 8 24.4
2011-01-14 08:52:32 51°27.134 2°52.521 3.3 13.7 8 21.8
2011-01-14 08:52:37 51°27.153 2°52.53 10 13.8 17 23.5
2011-01-14 08:52:42 51°27.172 2°52.533 9.1 14 7 24.7
2011-01-14 08:52:47 51°27.191 2°52.536 4.7 13.7 5 22.9
2011-01-14 08:52:52 51°27.209 2°52.543 7 13.7 13 22.8
2011-01-14 08:52:57 51°27.228 2°52.547 6.3 13.9 8 23
2011-01-14 08:53:02 51°27.247 2°52.555 8.8 13.9 15 21
2011-01-14 08:53:07 51°27.266 2°52.56 10.5 13.9 12 23.4
2011-01-14 08:53:12 51°27.285 2°52.566 8.8 13.9 11 22.7
2011-01-14 08:53:17 51°27.303 2°52.574 11.1 13.8 13 21.6
2011-01-14 08:53:22 51°27.322 2°52.583 10.1 14.3 19 22
2011-01-14 08:53:27 51°27.342 2°52.586 14.5 14 9 22.6
2011-01-14 08:53:31 51°27.356 2°52.592 6.4 13.8 13 23.4
2011-01-14 08:53:37 51°27.379 2°52.596 6.4 14 6 22.8
2011-01-14 08:53:42 51°27.398 2°52.605 9.7 13.8 17 23.7
2011-01-14 08:53:47 51°27.416 2°52.608 10.5 13.5 9 23.9
2011-01-14 08:53:52 51°27.435 2°52.614 7.6 13.5 10 23.8
2011-01-14 08:53:57 51°27.454 2°52.621 9.7 14 13 23.8
2011-01-14 08:54:02 51°27.473 2°52.629 11.1 14.2 15 22.2
2011-01-14 08:54:07 51°27.491 2°52.637 12.1 13.8 14 24.4
2011-01-14 08:54:11 51°27.505 2°52.644 14.6 13.4 17 23.2
2011-01-14 08:54:17 51°27.529 2°52.657 16.1 14.9 18 25.6
2011-01-14 08:54:22 51°27.547 2°52.653 6.1 13.6 355 23.4
2011-01-14 08:54:27 51°27.566 2°52.662 1.7 13.4 13 22.7
2011-01-14 08:54:32 51°27.586 2°52.663 5.3 14.3 5 21.4
2011-01-14 08:54:37 51°27.605 2°52.673 7.7 14.5 16 23.4
2011-01-14 08:54:42 51°27.624 2°52.673 5.3 13.7 5 22
2011-01-14 08:54:47 51°27.643 2°52.682 9.7 14.3 15 21.7
2011-01-14 08:54:51 51°27.658 2°52.682 4.5 13.8 9 22.9
2011-01-14 08:54:57 51°27.681 2°52.688 5.3 13.9 8 21.4
2011-01-14 08:55:02 51°27.701 2°52.694 8.6 14.3 8 22.4
2011-01-14 08:55:07 51°27.72 2°52.693 1.5 13.7 359 21.4
2011-01-14 08:55:12 51°27.739 2°52.699 2.1 14 9 22.3
2011-01-14 08:55:17 51°27.758 2°52.698 1.7 13.8 -999 22.2
2011-01-14 08:55:22 51°27.776 2°52.701 359.6 13.5 6 22
2011-01-14 08:55:27 51°27.795 2°52.705 3.4 13.6 7 21.9
2011-01-14 08:55:32 51°27.815 2°52.71 3.9 14.3 9 23.5
2011-01-14 08:55:37 51°27.834 2°52.712 3.8 13.6 6 -999
2011-01-14 08:55:42 51°27.852 2°52.721 7.1 13.5 15 23.2
2011-01-14 08:55:47 51°27.872 2°52.725 10.3 14.5 9 22.7
2011-01-14 08:55:52 51°27.891 2°52.726 5.5 14.2 2 22.5
2011-01-14 08:55:57 51°27.909 2°52.73 0.8 13.5 9 20.7
2011-01-14 08:56:02 51°27.929 2°52.735 5.9 14.3 5 22.6
2011-01-14 08:56:07 51°27.948 2°52.732 0.2 13.7 356 24
2011-01-14 08:56:12 51°27.966 2°52.734 357.8 13.1 3 23.1
2011-01-14 08:56:17 51°27.986 2°52.737 0.9 14 5 24.5
2011-01-14 08:56:22 51°28.005 2°52.735 358.5 13.6 359 22.5
2011-01-14 08:56:27 51°28.023 2°52.74 2.3 13.3 8 21.8
2011-01-14 08:56:32 51°28.042 2°52.743 3.3 14.1 7 23.5
2011-01-14 08:56:37 51°28.061 2°52.741 359 13.7 357 23.2
2011-01-14 08:56:42 51°28.08 2°52.743 356.7 13.5 2 23.7
2011-01-14 08:56:47 51°28.099 2°52.742 357.2 13.5 358 22.7
2011-01-14 08:56:52 51°28.118 2°52.748 3.4 13.8 11 23.5
2011-01-14 08:56:57 51°28.136 2°52.745 358.5 13.5 356 23.4
2011-01-14 08:57:02 51°28.155 2°52.748 0.1 13.8 1 23.5
2011-01-14 08:57:07 51°28.174 2°52.749 358.7 13.7 2 25
2011-01-14 08:57:12 51°28.193 2°52.75 0.1 13.6 2 25.2
2011-01-14 08:57:17 51°28.212 2°52.753 3.1 13.4 3 23.4
2011-01-14 08:57:22 51°28.231 2°52.755 359.8 13.8 5 24
2011-01-14 08:57:27 51°28.25 2°52.755 1.2 13.8 2 25
2011-01-14 08:57:32 51°28.269 2°52.759 359.2 13.8 11 25.4
2011-01-14 08:57:37 51°28.288 2°52.757 3.9 13.8 -999 25.1
2011-01-14 08:57:42 51°28.306 2°52.759 356.5 13.5 3 24
2011-01-14 08:57:47 51°28.325 2°52.76 357.5 13.6 3 25.1
2011-01-14 08:57:52 51°28.343 2°52.76 358.8 13.3 1 24.5
2011-01-14 08:57:57 51°28.363 2°52.766 3.7 14 7 26.7
2011-01-14 08:58:02 51°28.381 2°52.761 358.9 13 355 24.6
2011-01-14 08:58:07 51°28.399 2°52.767 357.9 13.5 9 26.6
2011-01-14 08:58:12 51°28.418 2°52.763 357.7 13.6 355 25.6
2011-01-14 08:58:17 51°28.437 2°52.77 2.2 13.7 9 27.1
2011-01-14 08:58:22 51°28.455 2°52.768 358.8 13.1 1 -999
2011-01-14 08:58:27 51°28.475 2°52.773 2 14.1 3 27.3
2011-01-14 08:58:32 51°28.493 2°52.764 353.9 13.2 347 26.1
2011-01-14 08:58:37 51°28.511 2°52.768 353.1 13.4 5 26.3
2011-01-14 08:58:42 51°28.53 2°52.766 356.3 13.6 357 26.6
2011-01-14 08:58:47 51°28.549 2°52.767 356.4 13.3 -999 26.6
2011-01-14 08:58:52 51°28.568 2°52.77 0.8 13.6 5 27.3
2011-01-14 08:58:57 51°28.586 2°52.767 358.1 13.3 357 26.9
2011-01-14 08:59:02 51°28.605 2°52.77 357.9 13.5 3 27.1
2011-01-14 08:59:07 51°28.623 2°52.773 359.8 13.5 6 27.6
2011-01-14 08:59:12 51°28.642 2°52.775 3.3 13.4 4 26.8
2011-01-14 08:59:17 51°28.66 2°52.777 1.3 13.5 3 27.7
2011-01-14 08:59:22 51°28.679 2°52.778 359.6 13.3 4 27.3
2011-01-14 08:59:27 51°28.697 2°52.783 4.2 13.4 11 27.3
2011-01-14 08:59:32 51°28.716 2°52.787 4.4 13.4 7 27.6
2011-01-14 08:59:37 51°28.734 2°52.789 3.6 13.4 5 27.4
2011-01-14 08:59:42 51°28.753 2°52.792 3.3 13.6 6 27.2
2011-01-14 08:59:47 51°28.772 2°52.793 2.3 13.4 3 26.7
2011-01-14 08:59:52 51°28.79 2°52.797 0.9 13.5 7 27.6
2011-01-14 08:59:57 51°28.809 2°52.795 358.6 13.8 -999 27.8
2011-01-14 09:00:02 51°28.828 2°52.794 357 13.5 355 27
2011-01-14 09:00:07 51°28.847 2°52.796 356.2 13.7 4 27.8
2011-01-14 09:00:12 51°28.865 2°52.792 355.4 13.5 354 27.7
2011-01-14 09:00:17 51°28.884 2°52.79 352 13.5 357 27.7
2011-01-14 09:00:22 51°28.903 2°52.787 352.4 13.5 353 27.8
2011-01-14 09:00:27 51°28.921 2°52.784 349.4 13.5 353 27.8
2011-01-14 09:00:32 51°28.94 2°52.781 349.9 13.7 355 28.5
2011-01-14 09:00:37 51°28.959 2°52.777 348.5 13.5 354 28.6
2011-01-14 09:00:42 51°28.977 2°52.771 347 13.4 350 28.6
2011-01-14 09:00:47 51°28.996 2°52.768 349 13.6 354 29.4
2011-01-14 09:00:52 51°29.014 2°52.761 345.6 13.4 348 29.7
2011-01-14 09:00:57 51°29.033 2°52.755 345.5 13.6 348 29.3
2011-01-14 09:01:02 51°29.051 2°52.75 346.3 13.5 349 28.7
2011-01-14 09:01:07 51°29.07 2°52.746 344.6 13.7 353 29.1
2011-01-14 09:01:12 51°29.089 2°52.74 344.3 13.5 351 29.5
2011-01-14 09:01:17 51°29.108 2°52.737 350 13.6 351 30.6
2011-01-14 09:01:22 51°29.125 2°52.729 342.6 13.3 349 30.6
2011-01-14 09:01:27 51°29.143 2°52.721 341.7 13.4 346 30.5
2011-01-14 09:01:32 51°29.161 2°52.719 343.3 13.4 355 30.9
2011-01-14 09:01:37 51°29.18 2°52.712 344.1 13.3 349 30.6
2011-01-14 09:01:42 51°29.197 2°52.706 343.4 13.3 349 -999
2011-01-14 09:01:47 51°29.216 2°52.703 346.2 13.4 353 30.3
2011-01-14 09:01:52 51°29.233 2°52.694 344.6 13.1 342 30.3
2011-01-14 09:01:57 51°29.251 2°52.687 339.8 13 346 30.6
2011-01-14 09:02:02 51°29.269 2°52.681 341.7 13.4 349 31.4
2011-01-14 09:02:07 51°29.286 2°52.672 342.4 13.3 344 30.8
2011-01-14 09:02:11 51°29.302 2°52.671 345.1 13.7 353 31.7
2011-01-14 09:02:17 51°29.322 2°52.66 342.6 13.2 343 31.7
2011-01-14 09:02:22 51°29.341 2°52.656 344.1 13.6 351 31.8
2011-01-14 09:02:27 51°29.359 2°52.648 342.5 13.3 347 31.9
2011-01-14 09:02:32 51°29.377 2°52.643 341.3 13.4 349 32.4
2011-01-14 09:02:37 51°29.396 2°52.637 346.7 13.5 348 32
2011-01-14 09:02:42 51°29.415 2°52.632 344.4 13.6 350 33.4
2011-01-14 09:02:47 51°29.433 2°52.624 342.6 13.6 346 33.2
2011-01-14 09:02:51 51°29.448 2°52.622 346.3 13.7 353 32.7
2011-01-14 09:02:57 51°29.47 2°52.615 346.7 13.5 349 32.6
2011-01-14 09:03:02 51°29.489 2°52.611 346.2 13.8 352 32.8
2011-01-14 09:03:07 51°29.507 2°52.605 346.3 13.6 349 32.8
2011-01-14 09:03:12 51°29.526 2°52.602 347 13.3 351 32.7
2011-01-14 09:03:17 51°29.544 2°52.599 348.8 13.5 354 32.9
2011-01-14 09:03:22 51°29.562 2°52.592 349.2 13.2 346 32.6
2011-01-14 09:03:27 51°29.581 2°52.59 345.4 13.4 354 33.7
2011-01-14 09:03:32 51°29.6 2°52.582 345.6 13.7 347 32.9
2011-01-14 09:03:37 51°29.618 2°52.577 344.1 13.6 348 32.3
2011-01-14 09:03:42 51°29.637 2°52.572 345.7 13.5 351 32.6
2011-01-14 09:03:47 51°29.655 2°52.566 346.2 13.6 349 32
2011-01-14 09:03:52 51°29.674 2°52.563 346.3 13.7 352 32.4
2011-01-14 09:03:57 51°29.692 2°52.557 345.9 13.6 353 32.5
2011-01-14 09:04:02 51°29.71 2°52.551 347.7 13.2 346 31.8
2011-01-14 09:04:07 51°29.729 2°52.547 344.5 13.6 351 32.9
2011-01-14 09:04:12 51°29.747 2°52.539 344.1 13.5 346 32.6
2011-01-14 09:04:17 51°29.766 2°52.536 347.4 13.9 354 31.5
2011-01-14 09:04:22 51°29.783 2°52.525 343.6 13.1 338 31.6
2011-01-14 09:04:27 51°29.802 2°52.521 338.6 13.3 348 32.2
2011-01-14 09:04:32 51°29.819 2°52.51 341.8 13.2 342 31.4
2011-01-14 09:04:37 51°29.837 2°52.508 341.1 13.3 355 31.2
2011-01-14 09:04:42 51°29.855 2°52.502 344.1 13.4 350 31.5
2011-01-14 09:04:47 51°29.873 2°52.494 343.7 13.1 346 29.8
2011-01-14 09:04:52 51°29.892 2°52.493 347 13.5 356 30.9
2011-01-14 09:04:57 51°29.909 2°52.484 342.6 13.2 346 31
2011-01-14 09:05:02 51°29.927 2°52.479 342.2 13.2 349 31
2011-01-14 09:05:07 51°29.946 2°52.474 344.7 13.6 350 30.5
2011-01-14 09:05:12 51°29.964 2°52.466 344.1 13.3 347 30.1
2011-01-14 09:05:17 51°29.983 2°52.465 347.2 13.8 356 31
2011-01-14 09:05:22 51°30 2°52.454 345.1 13.3 340 30.1
2011-01-14 09:05:27 51°30.019 2°52.449 339.9 13.4 347 31
2011-01-14 09:05:32 51°30.036 2°52.439 341.7 13.4 343 30.9
2011-01-14 09:05:37 51°30.055 2°52.435 341.7 13.6 350 31.2
2011-01-14 09:05:42 51°30.072 2°52.425 343.4 13.3 342 31.1
2011-01-14 09:05:47 51°30.091 2°52.422 343.4 13.6 353 31.9
2011-01-14 09:05:52 51°30.11 2°52.414 342.1 13.6 345 32.2
2011-01-14 09:05:57 51°30.128 2°52.409 345.4 13.6 348 31
2011-01-14 09:06:02 51°30.147 2°52.405 345.7 13.8 353 31.9
2011-01-14 09:06:07 51°30.165 2°52.397 345.5 13.4 346 30.4
2011-01-14 09:06:12 51°30.183 2°52.392 342.1 13.3 349 31.2
2011-01-14 09:06:17 51°30.202 2°52.386 343.5 13.3 349 30.4
2011-01-14 09:06:22 51°30.221 2°52.382 348.3 13.5 349 31.3
2011-01-14 09:06:27 51°30.238 2°52.373 341.9 13.3 342 30.9
2011-01-14 09:06:32 51°30.256 2°52.365 339.9 13.4 345 30.2
2011-01-14 09:06:37 51°30.274 2°52.359 341 13.4 350 30.4
2011-01-14 09:06:42 51°30.293 2°52.353 343.7 13.5 349 28.6